createdAt,value
2023-04-15T00:01:52.316Z,6.90
2023-04-15T00:04:19.057Z,9.43
2023-04-15T00:06:55.358Z,7.25
2023-04-15T00:09:22.009Z,7.63
2023-04-15T00:11:50.843Z,7.63
2023-04-15T00:14:17.489Z,6.82
2023-04-15T00:16:44.144Z,7.50
2023-04-15T00:19:11.237Z,7.68
2023-04-15T00:21:37.991Z,7.25
2023-04-15T00:24:04.518Z,7.55
2023-04-15T00:26:31.092Z,7.70
2023-04-15T00:28:58.154Z,7.80
2023-04-15T00:31:25.110Z,7.78
2023-04-15T00:33:52.391Z,7.28
2023-04-15T00:36:19.334Z,7.30
2023-04-15T00:38:46.536Z,6.97
2023-04-15T00:41:13.177Z,7.85
2023-04-15T00:43:40.085Z,7.70
2023-04-15T00:46:07.496Z,7.55
2023-04-15T00:48:34.123Z,6.90
2023-04-15T00:51:00.897Z,8.60
2023-04-15T00:53:27.528Z,7.97
2023-04-15T00:55:54.338Z,7.82
2023-04-15T00:58:21.385Z,8.70
2023-04-15T01:00:49.151Z,8.02
2023-04-15T01:03:16.301Z,8.07
2023-04-15T01:05:43.219Z,8.52
2023-04-15T01:08:09.870Z,7.70
2023-04-15T01:10:36.733Z,8.68
2023-04-15T01:13:04.212Z,7.60
2023-04-15T01:15:31.448Z,8.13
2023-04-15T01:18:03.144Z,7.85
2023-04-15T01:20:30.058Z,7.60
2023-04-15T01:22:56.901Z,8.18
2023-04-15T01:25:33.769Z,8.25
2023-04-15T01:28:00.912Z,8.07
2023-04-15T01:30:27.722Z,7.53
2023-04-15T01:32:54.402Z,7.93
2023-04-15T01:35:21.542Z,7.32
2023-04-15T01:37:48.432Z,7.55
2023-04-15T01:40:17.397Z,8.20
2023-04-15T01:42:44.088Z,8.05
2023-04-15T01:45:11.130Z,8.05
2023-04-15T01:47:38.269Z,8.98
2023-04-15T01:50:05.764Z,8.38
2023-04-15T01:52:32.430Z,7.82
2023-04-15T01:55:04.910Z,9.18
2023-04-15T01:57:34.289Z,9.32
2023-04-15T02:00:01.860Z,9.60
2023-04-15T02:02:40.130Z,9.43
2023-04-15T02:05:07.138Z,9.80
2023-04-15T02:07:33.798Z,9.10
2023-04-15T02:10:04.007Z,9.50
2023-04-15T02:12:30.566Z,9.50
2023-04-15T02:14:57.424Z,10.52
2023-04-15T02:17:24.277Z,10.40
2023-04-15T02:19:50.914Z,9.80
2023-04-15T02:22:18.960Z,9.88
2023-04-15T02:24:47.014Z,9.90
2023-04-15T02:27:18.157Z,11.00
2023-04-15T02:32:13.250Z,10.30
2023-04-15T02:34:42.530Z,10.05
2023-04-15T02:37:11.309Z,12.18
2023-04-15T02:39:38.013Z,10.70
2023-04-15T02:42:05.888Z,11.20
2023-04-15T02:44:33.987Z,12.57
2023-04-15T02:47:03.568Z,13.20
2023-04-15T02:49:31.023Z,12.07
2023-04-15T02:51:58.145Z,12.15
2023-04-15T02:54:25.267Z,11.48
2023-04-15T02:56:55.223Z,11.95
2023-04-15T02:59:22.646Z,12.83
2023-04-15T03:01:49.514Z,12.68
2023-04-15T03:04:16.906Z,11.85
2023-04-15T03:06:43.674Z,12.38
2023-04-15T03:09:10.372Z,12.27
2023-04-15T03:11:40.637Z,11.40
2023-04-15T03:16:39.260Z,11.80
2023-04-15T03:19:05.842Z,12.18
2023-04-15T03:21:33.809Z,10.80
2023-04-15T03:24:00.841Z,10.80
2023-04-15T03:26:29.517Z,11.18
2023-04-15T03:29:00.085Z,10.95
2023-04-15T03:31:27.067Z,12.43
2023-04-15T03:33:53.739Z,11.73
2023-04-15T03:36:20.641Z,11.98
2023-04-15T03:38:47.294Z,11.77
2023-04-15T03:41:13.957Z,12.02
2023-04-15T03:43:40.585Z,10.85
2023-04-15T03:46:07.291Z,12.30
2023-04-15T03:48:33.835Z,12.52
2023-04-15T03:51:00.819Z,12.23
2023-04-15T03:53:27.468Z,12.15
2023-04-15T03:55:54.190Z,12.65
2023-04-15T03:58:22.115Z,12.30
2023-04-15T04:00:49.652Z,13.20
2023-04-15T04:03:16.597Z,12.05
2023-04-15T04:05:44.689Z,13.63
2023-04-15T04:08:13.948Z,13.18
2023-04-15T04:10:40.832Z,12.35
2023-04-15T04:13:07.794Z,12.65
2023-04-15T04:15:34.580Z,12.30
2023-04-15T04:18:01.547Z,13.15
2023-04-15T04:20:28.298Z,13.65
2023-04-15T04:22:55.001Z,13.25
2023-04-15T04:25:21.538Z,14.95
2023-04-15T04:27:48.218Z,14.30
2023-04-15T04:30:14.751Z,14.07
2023-04-15T04:32:41.347Z,14.10
2023-04-15T04:35:08.724Z,14.40
2023-04-15T04:37:35.396Z,13.55
2023-04-15T04:40:03.659Z,14.60
2023-04-15T04:42:30.242Z,14.25
2023-04-15T04:44:56.813Z,13.93
2023-04-15T04:47:23.358Z,14.43
2023-04-15T04:49:49.960Z,16.05
2023-04-15T04:52:16.731Z,17.05
2023-04-15T04:54:43.378Z,15.70
2023-04-15T04:57:10.046Z,16.52
2023-04-15T04:59:36.590Z,17.17
2023-04-15T05:02:03.797Z,17.48
2023-04-15T05:04:31.885Z,18.23
2023-04-15T05:06:59.513Z,18.15
2023-04-15T05:09:26.435Z,17.33
2023-04-15T05:11:53.043Z,19.02
2023-04-15T05:14:20.505Z,18.58
2023-04-15T05:16:48.253Z,17.40
2023-04-15T05:19:14.832Z,18.30
2023-04-15T05:21:41.391Z,18.52
2023-04-15T05:24:07.939Z,18.17
2023-04-15T05:26:34.824Z,18.52
2023-04-15T05:29:01.759Z,18.45
2023-04-15T05:31:29.900Z,18.73
2023-04-15T05:34:00.249Z,18.45
2023-04-15T05:36:27.814Z,18.88
2023-04-15T05:38:54.355Z,17.98
2023-04-15T05:41:20.943Z,18.17
2023-04-15T05:43:47.680Z,18.92
2023-04-15T05:46:14.252Z,18.40
2023-04-15T05:48:40.935Z,19.83
2023-04-15T05:51:07.476Z,18.00
2023-04-15T05:53:34.039Z,19.77
2023-04-15T05:56:00.600Z,18.02
2023-04-15T05:58:27.139Z,17.70
2023-04-15T06:00:53.709Z,18.25
2023-04-15T06:03:22.729Z,18.27
2023-04-15T06:05:49.808Z,17.85
2023-04-15T06:08:16.474Z,17.38
2023-04-15T06:10:43.224Z,17.20
2023-04-15T06:13:09.880Z,16.30
2023-04-15T06:15:36.722Z,17.63
2023-04-15T06:18:03.630Z,16.83
2023-04-15T06:20:30.282Z,17.65
2023-04-15T06:22:57.573Z,14.98
2023-04-15T06:25:24.124Z,15.55
2023-04-15T06:27:50.671Z,15.77
2023-04-15T06:30:17.219Z,15.90
2023-04-15T06:32:43.825Z,16.23
2023-04-15T06:35:10.454Z,16.02
2023-04-15T06:37:37.028Z,16.25
2023-04-15T06:40:05.182Z,14.63
2023-04-15T06:42:32.238Z,14.77
2023-04-15T06:44:58.746Z,14.30
2023-04-15T06:47:25.418Z,15.50
2023-04-15T06:49:52.007Z,14.70
2023-04-15T06:52:18.654Z,15.30
2023-04-15T06:54:45.246Z,15.75
2023-04-15T06:57:11.826Z,15.82
2023-04-15T06:59:38.367Z,14.07
2023-04-15T07:02:04.986Z,15.48
2023-04-15T07:04:31.772Z,14.80
2023-04-15T07:06:58.435Z,15.40
2023-04-15T07:09:25.588Z,14.35
2023-04-15T07:11:52.493Z,13.98
2023-04-15T07:14:19.432Z,13.93
2023-04-15T07:16:46.136Z,14.80
2023-04-15T07:19:12.812Z,13.65
2023-04-15T07:21:41.702Z,14.15
2023-04-15T07:24:10.345Z,14.68
2023-04-15T07:26:37.125Z,13.55
2023-04-15T07:29:04.287Z,13.63
2023-04-15T07:31:31.180Z,14.35
2023-04-15T07:33:58.562Z,13.63
2023-04-15T07:36:34.009Z,12.85
2023-04-15T07:39:03.535Z,14.18
2023-04-15T07:41:31.510Z,13.82
2023-04-15T07:43:58.026Z,13.23
2023-04-15T07:46:27.233Z,10.57
2023-04-15T07:48:54.127Z,10.38
2023-04-15T07:51:24.023Z,10.63
2023-04-15T07:53:50.633Z,8.65
2023-04-15T07:56:17.243Z,8.73
2023-04-15T07:58:44.031Z,8.63
2023-04-15T08:01:10.826Z,8.60
2023-04-15T08:03:37.768Z,7.45
2023-04-15T08:06:04.570Z,7.40
2023-04-15T08:08:31.240Z,7.38
2023-04-15T08:10:58.484Z,6.50
2023-04-15T08:13:26.349Z,6.28
2023-04-15T08:16:20.033Z,6.10
2023-04-15T08:18:48.617Z,7.22
2023-04-15T08:21:16.467Z,6.47
2023-04-15T08:23:44.032Z,7.15
2023-04-15T08:26:11.117Z,7.65
2023-04-15T08:28:38.914Z,7.93
2023-04-15T08:31:05.808Z,8.95
2023-04-15T08:33:32.430Z,8.38
2023-04-15T08:35:58.984Z,8.88
2023-04-15T08:38:25.549Z,8.85
2023-04-15T08:40:52.497Z,6.50
2023-04-15T08:43:24.140Z,6.47
2023-04-15T08:45:52.099Z,6.18
2023-04-15T08:48:19.038Z,6.25
2023-04-15T08:50:47.073Z,4.72
2023-04-15T08:53:15.509Z,4.57
2023-04-15T08:55:47.339Z,4.93
2023-04-15T08:58:14.455Z,5.03
2023-04-15T09:00:41.533Z,5.35
2023-04-15T09:03:09.282Z,5.20
2023-04-15T09:05:36.576Z,4.53
2023-04-15T09:08:04.149Z,5.50
2023-04-15T09:10:31.690Z,4.70
2023-04-15T09:12:58.545Z,4.00
2023-04-15T09:15:27.816Z,4.40
2023-04-15T09:17:54.469Z,4.03
2023-04-15T09:20:21.235Z,4.45
2023-04-15T09:22:49.213Z,4.85
2023-04-15T09:25:15.876Z,4.60
2023-04-15T09:27:49.771Z,5.00
2023-04-15T09:30:16.814Z,4.03
2023-04-15T09:32:53.984Z,4.78
2023-04-15T09:35:22.182Z,4.82
2023-04-15T09:37:52.666Z,4.45
2023-04-15T09:40:39.713Z,4.03
2023-04-15T09:43:07.310Z,4.32
2023-04-15T09:45:34.954Z,3.92
2023-04-15T09:48:27.074Z,4.25
2023-04-15T09:50:54.042Z,4.13
2023-04-15T09:53:22.275Z,3.92
2023-04-15T09:55:54.533Z,4.60
2023-04-15T09:58:28.746Z,4.03
2023-04-15T10:00:56.876Z,4.47
2023-04-15T10:03:26.638Z,4.25
2023-04-15T10:05:55.870Z,4.68
2023-04-15T10:08:27.822Z,5.43
2023-04-15T10:10:54.942Z,4.82
2023-04-15T10:13:23.793Z,4.70
2023-04-15T10:15:53.456Z,4.45
2023-04-15T10:18:21.660Z,5.30
2023-04-15T10:20:49.067Z,4.93
2023-04-15T10:23:20.662Z,5.30
2023-04-15T10:25:47.529Z,6.07
2023-04-15T10:28:15.140Z,6.65
2023-04-15T10:30:43.025Z,6.47
2023-04-15T10:33:10.479Z,5.90
2023-04-15T10:35:37.442Z,6.88
2023-04-15T10:38:35.502Z,6.88
2023-04-15T10:41:18.001Z,6.00
2023-04-15T10:43:56.030Z,6.18
2023-04-15T10:46:25.703Z,6.30
2023-04-15T10:48:53.940Z,6.43
2023-04-15T10:51:28.484Z,7.30
2023-04-15T10:53:59.706Z,7.05
2023-04-15T10:56:28.685Z,7.00
2023-04-15T10:59:02.023Z,6.60
2023-04-15T11:02:00.117Z,5.30
2023-04-15T11:04:58.445Z,5.40
2023-04-15T11:07:41.805Z,5.32
2023-04-15T11:10:14.098Z,4.50
2023-04-15T11:12:41.804Z,4.13
2023-04-15T11:15:33.235Z,4.43
2023-04-15T11:18:20.063Z,8.95
2023-04-15T11:20:59.470Z,6.43
2023-04-15T11:23:34.305Z,4.68
2023-04-15T11:26:03.328Z,4.32
2023-04-15T11:28:31.133Z,5.40
2023-04-15T11:30:58.632Z,5.00
2023-04-15T11:33:25.826Z,5.55
2023-04-15T11:35:54.208Z,5.82
2023-04-15T11:38:20.785Z,5.03
2023-04-15T11:40:47.504Z,4.45
2023-04-15T11:43:16.651Z,4.20
2023-04-15T11:46:02.459Z,4.60
2023-04-15T11:48:33.763Z,4.63
2023-04-15T11:51:02.829Z,4.95
2023-04-15T11:53:46.289Z,4.53
2023-04-15T11:56:23.844Z,3.85
2023-04-15T11:58:57.055Z,4.15
2023-04-15T12:01:46.606Z,4.60
2023-04-15T12:04:15.218Z,5.20
2023-04-15T12:06:42.112Z,5.22
2023-04-15T12:09:12.408Z,5.38
2023-04-15T12:11:49.749Z,5.30
2023-04-15T12:14:32.641Z,5.38
2023-04-15T12:17:01.410Z,4.43
2023-04-15T12:19:35.792Z,4.75
2023-04-15T12:22:08.913Z,5.18
2023-04-15T12:24:37.173Z,5.40
2023-04-15T12:27:04.636Z,5.25
2023-04-15T12:29:31.906Z,4.82
2023-04-15T12:32:04.843Z,4.93
2023-04-15T12:34:39.548Z,5.05
2023-04-15T12:37:09.514Z,5.00
2023-04-15T12:39:37.864Z,4.60
2023-04-15T12:42:05.213Z,4.53
2023-04-15T12:44:33.192Z,4.40
2023-04-15T12:47:02.182Z,4.00
2023-04-15T12:49:29.517Z,4.57
2023-04-15T12:51:57.462Z,4.50
2023-04-15T12:54:24.011Z,4.63
2023-04-15T12:56:50.983Z,4.47
2023-04-15T12:59:18.526Z,4.53
2023-04-15T13:01:46.563Z,4.32
2023-04-15T13:04:13.328Z,4.70
2023-04-15T13:06:40.075Z,4.05
2023-04-15T13:09:06.721Z,4.20
2023-04-15T13:11:34.233Z,4.75
2023-04-15T13:14:05.895Z,4.95
2023-04-15T13:16:39.786Z,5.50
2023-04-15T13:19:06.431Z,5.28
2023-04-15T13:21:35.773Z,4.97
2023-04-15T13:24:03.620Z,4.80
2023-04-15T13:26:32.015Z,4.82
2023-04-15T13:28:59.694Z,4.47
2023-04-15T13:31:39.993Z,4.35
2023-04-15T13:34:06.725Z,4.78
2023-04-15T13:36:33.540Z,4.38
2023-04-15T13:39:00.534Z,4.45
2023-04-15T13:41:27.781Z,3.53
2023-04-15T13:43:54.521Z,4.43
2023-04-15T13:46:21.313Z,3.55
2023-04-15T13:48:48.026Z,4.20
2023-04-15T13:51:14.752Z,3.75
2023-04-15T13:53:41.447Z,4.25
2023-04-15T13:56:08.498Z,4.10
2023-04-15T13:58:36.728Z,3.75
2023-04-15T14:01:05.790Z,3.70
2023-04-15T14:03:38.196Z,3.20
2023-04-15T14:06:06.062Z,3.80
2023-04-15T14:08:33.418Z,4.10
2023-04-15T14:11:00.062Z,3.63
2023-04-15T14:13:27.117Z,4.00
2023-04-15T14:15:54.204Z,4.20
2023-04-15T14:18:38.912Z,4.28
2023-04-15T14:21:07.136Z,4.13
2023-04-15T14:23:33.895Z,4.00
2023-04-15T14:26:00.461Z,4.15
2023-04-15T14:28:27.069Z,4.35
2023-04-15T14:30:53.694Z,4.90
2023-04-15T14:33:38.090Z,5.40
2023-04-15T14:36:04.859Z,4.57
2023-04-15T14:38:31.507Z,5.25
2023-04-15T14:40:58.356Z,5.70
2023-04-15T14:43:24.956Z,4.97
2023-04-15T14:45:51.873Z,5.15
2023-04-15T14:48:18.400Z,4.53
2023-04-15T14:50:45.015Z,4.53
2023-04-15T14:53:11.834Z,4.78
2023-04-15T14:55:38.438Z,3.88
2023-04-15T14:58:06.470Z,3.78
2023-04-15T15:00:33.131Z,3.30
2023-04-15T15:02:59.978Z,3.65
2023-04-15T15:05:26.687Z,3.40
2023-04-15T15:07:53.394Z,3.45
2023-04-15T15:10:33.109Z,2.92
2023-04-15T15:13:07.877Z,3.10
2023-04-15T15:15:35.818Z,2.90
2023-04-15T15:18:02.711Z,3.25
2023-04-15T15:20:29.633Z,2.60
2023-04-15T15:22:56.432Z,3.22
2023-04-15T15:25:23.057Z,2.63
2023-04-15T15:27:49.738Z,2.50
2023-04-15T15:30:16.464Z,2.33
2023-04-15T15:32:43.552Z,2.45
2023-04-15T15:35:20.569Z,2.30
2023-04-15T15:37:47.398Z,2.53
2023-04-15T15:40:14.289Z,2.70
2023-04-15T15:42:41.774Z,2.35
2023-04-15T15:45:08.550Z,2.50
2023-04-15T15:47:35.209Z,2.83
2023-04-15T15:50:05.593Z,3.15
2023-04-15T15:52:32.757Z,2.83
2023-04-15T15:54:59.389Z,2.53
2023-04-15T15:57:25.975Z,2.58
2023-04-15T16:00:04.927Z,2.58
2023-04-15T16:03:04.314Z,2.88
2023-04-15T16:05:23.750Z,2.40
2023-04-15T16:07:50.331Z,2.22
2023-04-15T16:10:17.138Z,2.25
2023-04-15T16:12:44.162Z,2.40
2023-04-15T16:15:12.800Z,3.28
2023-04-15T16:17:39.508Z,2.40
2023-04-15T16:20:06.960Z,2.25
2023-04-15T16:22:34.792Z,2.38
2023-04-15T16:25:04.094Z,2.78
2023-04-15T16:27:30.800Z,2.63
2023-04-15T16:29:57.445Z,2.53
2023-04-15T16:32:24.103Z,3.40
2023-04-15T16:34:52.018Z,3.70
2023-04-15T16:37:20.430Z,2.53
2023-04-15T16:39:47.236Z,3.05
2023-04-15T16:42:13.859Z,2.75
2023-04-15T16:44:40.619Z,2.83
2023-04-15T16:47:08.900Z,2.80
2023-04-15T16:49:35.608Z,2.78
2023-04-15T16:52:02.528Z,2.67
2023-04-15T16:54:33.425Z,3.13
2023-04-15T16:57:00.077Z,2.67
2023-04-15T16:59:27.183Z,2.80
2023-04-15T17:01:54.536Z,2.85
2023-04-15T17:04:21.478Z,3.15
2023-04-15T17:06:48.395Z,3.20
2023-04-15T17:09:14.954Z,3.38
2023-04-15T17:11:42.959Z,3.47
2023-04-15T17:14:09.519Z,3.70
2023-04-15T17:16:36.456Z,3.08
2023-04-15T17:19:03.386Z,3.58
2023-04-15T17:21:31.786Z,3.60
2023-04-15T17:23:58.418Z,3.85
2023-04-15T17:26:24.949Z,3.50
2023-04-15T17:28:51.768Z,3.50
2023-04-15T17:31:18.445Z,3.20
2023-04-15T17:34:00.729Z,3.40
2023-04-15T17:36:31.902Z,3.20
2023-04-15T17:38:58.426Z,3.95
2023-04-15T17:41:24.981Z,3.78
2023-04-15T17:43:51.534Z,3.20
2023-04-15T17:46:19.289Z,4.00
2023-04-15T17:48:46.764Z,4.43
2023-04-15T17:51:13.555Z,3.80
2023-04-15T17:53:40.182Z,4.03
2023-04-15T17:56:06.781Z,3.95
2023-04-15T17:58:33.412Z,4.65
2023-04-15T18:00:59.959Z,4.30
2023-04-15T18:03:27.269Z,4.22
2023-04-15T18:05:54.553Z,5.10
2023-04-15T18:08:21.123Z,4.72
2023-04-15T18:10:47.652Z,4.90
2023-04-15T18:13:14.277Z,5.07
2023-04-15T18:15:40.940Z,4.85
2023-04-15T18:18:07.541Z,4.32
2023-04-15T18:20:34.250Z,5.20
2023-04-15T18:23:00.792Z,5.18
2023-04-15T18:25:27.531Z,4.28
2023-04-15T18:27:54.863Z,4.43
2023-04-15T18:30:21.567Z,4.32
2023-04-15T18:32:48.128Z,4.28
2023-04-15T18:35:17.001Z,4.38
2023-04-15T18:37:43.532Z,4.10
2023-04-15T18:40:10.435Z,4.32
2023-04-15T18:42:37.038Z,4.00
2023-04-15T18:45:03.806Z,4.15
2023-04-15T18:47:30.406Z,4.70
2023-04-15T18:49:58.316Z,4.40
2023-04-15T18:52:24.982Z,4.32
2023-04-15T18:54:51.520Z,5.00
2023-04-15T18:57:23.650Z,4.50
2023-04-15T18:59:57.831Z,4.55
2023-04-15T19:02:24.543Z,4.78
2023-04-15T19:04:51.187Z,5.13
2023-04-15T19:07:17.922Z,4.68
2023-04-15T19:09:44.647Z,5.07
2023-04-15T19:12:11.309Z,4.82
2023-04-15T19:14:37.913Z,5.25
2023-04-15T19:17:04.861Z,5.10
2023-04-15T19:19:31.804Z,5.30
2023-04-15T19:21:59.129Z,5.20
2023-04-15T19:24:25.726Z,5.00
2023-04-15T19:26:52.265Z,5.78
2023-04-15T19:29:18.944Z,5.70
2023-04-15T19:31:45.896Z,6.95
2023-04-15T19:34:12.646Z,6.78
2023-04-15T19:36:39.178Z,7.13
2023-04-15T19:39:06.258Z,8.73
2023-04-15T19:41:33.087Z,9.98
2023-04-15T19:44:00.966Z,8.13
2023-04-15T19:46:30.853Z,8.75
2023-04-15T19:48:57.633Z,8.35
2023-04-15T19:51:24.876Z,7.85
2023-04-15T19:53:53.843Z,7.63
2023-04-15T19:56:20.643Z,7.85
2023-04-15T19:58:52.528Z,7.22
2023-04-15T20:01:20.229Z,6.88
2023-04-15T20:03:47.227Z,7.07
2023-04-15T20:06:16.899Z,6.30
2023-04-15T20:08:43.758Z,6.72
2023-04-15T20:11:10.743Z,6.60
2023-04-15T20:13:37.600Z,6.45
2023-04-15T20:16:05.916Z,7.28
2023-04-15T20:18:34.876Z,7.15
2023-04-15T20:21:01.815Z,6.32
2023-04-15T20:23:28.457Z,7.07
2023-04-15T20:25:55.174Z,6.35
2023-04-15T20:28:23.306Z,6.53
2023-04-15T20:30:51.085Z,6.38
2023-04-15T20:33:17.834Z,7.13
2023-04-15T20:35:44.674Z,6.32
2023-04-15T20:38:11.383Z,7.85
2023-04-15T20:40:41.214Z,6.93
2023-04-15T20:43:08.505Z,5.20
2023-04-15T20:45:35.067Z,7.38
2023-04-15T20:48:01.763Z,6.60
2023-04-15T20:50:28.385Z,7.85
2023-04-15T20:52:55.397Z,7.15
2023-04-15T20:55:22.161Z,7.40
2023-04-15T20:57:48.703Z,7.43
2023-04-15T21:00:15.590Z,7.75
2023-04-15T21:02:42.324Z,7.85
2023-04-15T21:05:09.249Z,7.93
2023-04-15T21:07:35.832Z,7.72
2023-04-15T21:10:03.110Z,7.28
2023-04-15T21:12:29.892Z,7.10
2023-04-15T21:14:56.503Z,7.30
2023-04-15T21:17:23.198Z,7.55
2023-04-15T21:19:49.876Z,7.00
2023-04-15T21:22:16.721Z,7.78
2023-04-15T21:24:43.559Z,7.05
2023-04-15T21:27:10.310Z,7.45
2023-04-15T21:29:40.126Z,7.18
2023-04-15T21:32:06.797Z,7.53
2023-04-15T21:34:33.504Z,6.75
2023-04-15T21:37:00.108Z,7.30
2023-04-15T21:39:26.666Z,7.20
2023-04-15T21:41:53.330Z,7.20
2023-04-15T21:44:20.000Z,7.80
2023-04-15T21:46:46.731Z,6.70
2023-04-15T21:49:13.874Z,7.45
2023-04-15T21:51:40.564Z,7.70
2023-04-15T21:54:07.188Z,7.80
2023-04-15T21:56:33.858Z,6.90
2023-04-15T21:59:00.638Z,7.93
2023-04-15T22:01:27.327Z,7.40
2023-04-15T22:03:54.321Z,7.75
2023-04-15T22:06:21.432Z,8.05
2023-04-15T22:08:57.124Z,8.25
2023-04-15T22:11:30.331Z,9.05
2023-04-15T22:13:58.450Z,8.48
2023-04-15T22:16:28.242Z,8.15
2023-04-15T22:18:56.300Z,7.60
2023-04-15T22:21:23.506Z,8.30
2023-04-15T22:23:51.067Z,8.30
2023-04-15T22:26:17.704Z,8.48
2023-04-15T22:28:44.255Z,7.75
2023-04-15T22:31:11.042Z,7.53
2023-04-15T22:33:38.687Z,9.15
2023-04-15T22:36:05.682Z,8.93
2023-04-15T22:38:32.480Z,7.80
2023-04-15T22:40:59.095Z,8.00
2023-04-15T22:43:27.517Z,8.65
2023-04-15T22:45:54.876Z,8.20
2023-04-15T22:48:21.638Z,9.05
2023-04-15T22:50:48.520Z,9.52
2023-04-15T22:53:16.362Z,9.63
2023-04-15T22:55:49.262Z,9.23
2023-04-15T22:58:17.318Z,9.10
2023-04-15T23:00:44.575Z,9.20
2023-04-15T23:03:11.551Z,9.27
2023-04-15T23:05:40.006Z,9.45
2023-04-15T23:08:08.304Z,9.73
2023-04-15T23:10:35.012Z,9.20
2023-04-15T23:13:01.592Z,9.82
2023-04-15T23:15:28.236Z,10.20
2023-04-15T23:17:54.918Z,11.00
2023-04-15T23:20:22.533Z,9.57
2023-04-15T23:22:49.354Z,10.30
2023-04-15T23:25:16.055Z,9.75
2023-04-15T23:27:42.827Z,10.45
2023-04-15T23:30:09.530Z,9.38
2023-04-15T23:32:36.345Z,10.93
2023-04-15T23:35:03.087Z,10.77
2023-04-15T23:37:30.569Z,10.95
2023-04-15T23:39:57.319Z,11.73
2023-04-15T23:42:24.209Z,10.65
2023-04-15T23:44:51.063Z,10.27
2023-04-15T23:47:17.656Z,11.38
2023-04-15T23:49:44.189Z,10.95
2023-04-15T23:52:10.942Z,11.15
2023-04-15T23:54:37.823Z,10.85
2023-04-15T23:57:04.480Z,10.63
2023-04-15T23:59:31.713Z,11.23
